Alpha, Ohio
Current Conditions -  °F | °C
As of 12:58 AM on Sunday 23 Nov 2014 (Local Time) from KFFO Reporting Station
Broken Clouds Broken Clouds  
Wind Chill: 11°   Ceiling: 7000
Heat Index: 11°   Visibility: 10mi
Dew Point:   Wind: 8mph
Humidity: 49%   Direction: 180°S
Pressure: 30.04"   Gusts: NA
Location:  39.71°N, 84.02°W
Report Text: KFFO 230558Z AUTO 18007KT 10SM BKN070 BKN090 11/00 A3004 RMK AO2 SLP177 T01070003 10121 20099 57004
Loading
Personal Weather Stations






























Interactive Weather Map New forecast layout! Learn more

10-Day Weather Forecast

Advertisements
Track Severe Weather on mobile